sensor_id;sensor_type;location;lat;lon;timestamp;temperature;humidity
31867;DHT22;18431;45.580;-122.680;2022-07-18T00:01:00;25.30;50.50
31867;DHT22;18431;45.580;-122.680;2022-07-18T00:03:30;25.30;50.60
31867;DHT22;18431;45.580;-122.680;2022-07-18T00:06:00;25.40;50.60
31867;DHT22;18431;45.580;-122.680;2022-07-18T00:08:30;25.40;50.60
31867;DHT22;18431;45.580;-122.680;2022-07-18T00:11:00;25.50;50.80
31867;DHT22;18431;45.580;-122.680;2022-07-18T00:13:30;25.50;50.80
31867;DHT22;18431;45.580;-122.680;2022-07-18T00:16:01;25.50;50.90
31867;DHT22;18431;45.580;-122.680;2022-07-18T00:18:31;25.50;51.00
31867;DHT22;18431;45.580;-122.680;2022-07-18T00:21:01;25.60;51.10
31867;DHT22;18431;45.580;-122.680;2022-07-18T00:23:32;25.60;51.00
31867;DHT22;18431;45.580;-122.680;2022-07-18T00:26:04;25.60;50.80
31867;DHT22;18431;45.580;-122.680;2022-07-18T00:28:33;25.60;50.60
31867;DHT22;18431;45.580;-122.680;2022-07-18T00:31:03;25.70;50.50
31867;DHT22;18431;45.580;-122.680;2022-07-18T00:33:33;25.60;50.20
31867;DHT22;18431;45.580;-122.680;2022-07-18T00:36:03;25.70;50.20
31867;DHT22;18431;45.580;-122.680;2022-07-18T00:38:33;25.70;50.10
31867;DHT22;18431;45.580;-122.680;2022-07-18T00:41:03;25.70;50.30
31867;DHT22;18431;45.580;-122.680;2022-07-18T00:43:33;25.70;50.10
31867;DHT22;18431;45.580;-122.680;2022-07-18T00:46:03;25.50;49.90
31867;DHT22;18431;45.580;-122.680;2022-07-18T00:48:33;25.30;49.80
31867;DHT22;18431;45.580;-122.680;2022-07-18T00:51:03;25.10;49.70
31867;DHT22;18431;45.580;-122.680;2022-07-18T00:53:33;24.90;49.70
31867;DHT22;18431;45.580;-122.680;2022-07-18T00:56:04;24.70;49.70
31867;DHT22;18431;45.580;-122.680;2022-07-18T00:58:34;24.60;50.50
31867;DHT22;18431;45.580;-122.680;2022-07-18T01:01:04;24.70;50.70
31867;DHT22;18431;45.580;-122.680;2022-07-18T01:03:51;24.70;50.90
31867;DHT22;18431;45.580;-122.680;2022-07-18T01:06:21;24.80;51.00
31867;DHT22;18431;45.580;-122.680;2022-07-18T01:08:53;24.90;51.00
31867;DHT22;18431;45.580;-122.680;2022-07-18T01:11:23;24.90;51.00
31867;DHT22;18431;45.580;-122.680;2022-07-18T01:13:54;25.00;51.00
31867;DHT22;18431;45.580;-122.680;2022-07-18T01:16:23;25.10;51.00
31867;DHT22;18431;45.580;-122.680;2022-07-18T01:18:55;25.10;50.70
31867;DHT22;18431;45.580;-122.680;2022-07-18T01:21:25;25.20;50.70
31867;DHT22;18431;45.580;-122.680;2022-07-18T01:23:56;25.30;51.10
31867;DHT22;18431;45.580;-122.680;2022-07-18T01:26:26;25.30;51.30
31867;DHT22;18431;45.580;-122.680;2022-07-18T01:28:57;25.40;51.60
31867;DHT22;18431;45.580;-122.680;2022-07-18T01:31:27;25.40;51.60
31867;DHT22;18431;45.580;-122.680;2022-07-18T01:34:00;25.50;51.90
31867;DHT22;18431;45.580;-122.680;2022-07-18T01:36:32;25.50;52.10
31867;DHT22;18431;45.580;-122.680;2022-07-18T01:39:01;25.50;51.90
31867;DHT22;18431;45.580;-122.680;2022-07-18T01:41:31;25.60;52.20
31867;DHT22;18431;45.580;-122.680;2022-07-18T01:44:02;25.60;52.20
31867;DHT22;18431;45.580;-122.680;2022-07-18T01:46:32;25.60;52.20
31867;DHT22;18431;45.580;-122.680;2022-07-18T01:49:03;25.70;52.30
31867;DHT22;18431;45.580;-122.680;2022-07-18T01:51:33;25.70;52.20
31867;DHT22;18431;45.580;-122.680;2022-07-18T01:54:03;25.70;52.20
31867;DHT22;18431;45.580;-122.680;2022-07-18T01:56:32;25.70;52.10
31867;DHT22;18431;45.580;-122.680;2022-07-18T01:59:02;25.70;52.10
31867;DHT22;18431;45.580;-122.680;2022-07-18T02:01:32;25.70;52.10
31867;DHT22;18431;45.580;-122.680;2022-07-18T02:04:02;25.80;52.00
31867;DHT22;18431;45.580;-122.680;2022-07-18T02:06:32;25.80;52.00
31867;DHT22;18431;45.580;-122.680;2022-07-18T02:09:03;25.80;52.00
31867;DHT22;18431;45.580;-122.680;2022-07-18T02:11:33;25.80;52.00
31867;DHT22;18431;45.580;-122.680;2022-07-18T02:14:05;25.80;51.90
31867;DHT22;18431;45.580;-122.680;2022-07-18T02:16:34;25.90;51.90
31867;DHT22;18431;45.580;-122.680;2022-07-18T02:19:04;25.90;51.90
31867;DHT22;18431;45.580;-122.680;2022-07-18T02:21:34;25.90;51.80
31867;DHT22;18431;45.580;-122.680;2022-07-18T02:24:05;25.90;51.80
31867;DHT22;18431;45.580;-122.680;2022-07-18T02:26:35;26.00;51.80
31867;DHT22;18431;45.580;-122.680;2022-07-18T02:29:04;25.90;51.60
31867;DHT22;18431;45.580;-122.680;2022-07-18T02:31:36;26.00;51.70
31867;DHT22;18431;45.580;-122.680;2022-07-18T02:34:06;26.00;51.70
31867;DHT22;18431;45.580;-122.680;2022-07-18T02:36:38;26.00;51.60
31867;DHT22;18431;45.580;-122.680;2022-07-18T02:39:09;26.00;51.70
31867;DHT22;18431;45.580;-122.680;2022-07-18T02:41:39;26.00;51.60
31867;DHT22;18431;45.580;-122.680;2022-07-18T02:44:09;26.00;51.60
31867;DHT22;18431;45.580;-122.680;2022-07-18T02:46:39;26.00;51.60
31867;DHT22;18431;45.580;-122.680;2022-07-18T02:49:08;26.00;51.60
31867;DHT22;18431;45.580;-122.680;2022-07-18T02:51:38;26.00;51.50
31867;DHT22;18431;45.580;-122.680;2022-07-18T02:54:08;26.00;51.50
31867;DHT22;18431;45.580;-122.680;2022-07-18T02:56:38;26.10;51.60
31867;DHT22;18431;45.580;-122.680;2022-07-18T02:59:08;26.10;51.50
31867;DHT22;18431;45.580;-122.680;2022-07-18T03:01:38;26.10;51.50
31867;DHT22;18431;45.580;-122.680;2022-07-18T03:04:08;26.10;51.50
31867;DHT22;18431;45.580;-122.680;2022-07-18T03:06:39;26.10;51.40
31867;DHT22;18431;45.580;-122.680;2022-07-18T03:09:09;26.00;51.00
31867;DHT22;18431;45.580;-122.680;2022-07-18T03:11:41;25.80;50.60
31867;DHT22;18431;45.580;-122.680;2022-07-18T03:14:12;25.60;50.50
31867;DHT22;18431;45.580;-122.680;2022-07-18T03:16:42;25.40;50.50
31867;DHT22;18431;45.580;-122.680;2022-07-18T03:19:12;25.20;50.40
31867;DHT22;18431;45.580;-122.680;2022-07-18T03:21:42;25.00;50.40
31867;DHT22;18431;45.580;-122.680;2022-07-18T03:24:12;24.80;51.20
31867;DHT22;18431;45.580;-122.680;2022-07-18T03:26:44;24.90;51.70
31867;DHT22;18431;45.580;-122.680;2022-07-18T03:29:14;24.90;51.80
31867;DHT22;18431;45.580;-122.680;2022-07-18T03:31:43;25.00;51.80
31867;DHT22;18431;45.580;-122.680;2022-07-18T03:34:13;25.10;51.80
31867;DHT22;18431;45.580;-122.680;2022-07-18T03:36:43;25.10;51.70
31867;DHT22;18431;45.580;-122.680;2022-07-18T03:39:14;25.20;51.70
31867;DHT22;18431;45.580;-122.680;2022-07-18T03:41:44;25.30;51.70
31867;DHT22;18431;45.580;-122.680;2022-07-18T03:44:15;25.30;51.50
31867;DHT22;18431;45.580;-122.680;2022-07-18T03:46:45;25.40;51.50
31867;DHT22;18431;45.580;-122.680;2022-07-18T03:49:16;25.40;51.40
31867;DHT22;18431;45.580;-122.680;2022-07-18T03:51:46;25.50;51.40
31867;DHT22;18431;45.580;-122.680;2022-07-18T03:54:15;25.50;51.30
31867;DHT22;18431;45.580;-122.680;2022-07-18T03:56:45;25.60;51.30
31867;DHT22;18431;45.580;-122.680;2022-07-18T03:59:15;25.60;51.20
31867;DHT22;18431;45.580;-122.680;2022-07-18T04:01:45;25.60;51.20
31867;DHT22;18431;45.580;-122.680;2022-07-18T04:04:17;25.70;51.10
31867;DHT22;18431;45.580;-122.680;2022-07-18T04:06:47;25.70;51.10
31867;DHT22;18431;45.580;-122.680;2022-07-18T04:09:17;25.70;51.10
31867;DHT22;18431;45.580;-122.680;2022-07-18T04:11:47;25.70;51.00
31867;DHT22;18431;45.580;-122.680;2022-07-18T04:14:17;25.80;51.10
31867;DHT22;18431;45.580;-122.680;2022-07-18T04:16:47;25.80;51.00
31867;DHT22;18431;45.580;-122.680;2022-07-18T04:19:17;25.80;51.00
31867;DHT22;18431;45.580;-122.680;2022-07-18T04:21:48;25.80;51.00
31867;DHT22;18431;45.580;-122.680;2022-07-18T04:24:18;25.80;50.90
31867;DHT22;18431;45.580;-122.680;2022-07-18T04:26:47;25.90;51.00
31867;DHT22;18431;45.580;-122.680;2022-07-18T04:29:17;25.90;50.90
31867;DHT22;18431;45.580;-122.680;2022-07-18T04:31:47;25.90;50.90
31867;DHT22;18431;45.580;-122.680;2022-07-18T04:34:17;25.90;50.90
31867;DHT22;18431;45.580;-122.680;2022-07-18T04:36:47;25.90;51.50
31867;DHT22;18431;45.580;-122.680;2022-07-18T04:39:16;25.90;50.80
31867;DHT22;18431;45.580;-122.680;2022-07-18T04:41:46;25.90;50.80
31867;DHT22;18431;45.580;-122.680;2022-07-18T04:44:16;25.90;50.90
31867;DHT22;18431;45.580;-122.680;2022-07-18T04:46:47;25.90;50.80
31867;DHT22;18431;45.580;-122.680;2022-07-18T04:49:19;26.00;50.80
31867;DHT22;18431;45.580;-122.680;2022-07-18T04:51:50;26.00;50.70
31867;DHT22;18431;45.580;-122.680;2022-07-18T04:54:19;26.00;50.70
31867;DHT22;18431;45.580;-122.680;2022-07-18T04:56:49;26.00;50.80
31867;DHT22;18431;45.580;-122.680;2022-07-18T04:59:19;26.00;50.70
31867;DHT22;18431;45.580;-122.680;2022-07-18T05:01:48;26.00;50.70
31867;DHT22;18431;45.580;-122.680;2022-07-18T05:04:18;26.00;50.70
31867;DHT22;18431;45.580;-122.680;2022-07-18T05:06:48;26.00;50.70
31867;DHT22;18431;45.580;-122.680;2022-07-18T05:09:18;25.90;50.70
31867;DHT22;18431;45.580;-122.680;2022-07-18T05:11:48;26.00;50.80
31867;DHT22;18431;45.580;-122.680;2022-07-18T05:14:18;25.90;50.70
31867;DHT22;18431;45.580;-122.680;2022-07-18T05:16:49;25.90;50.70
31867;DHT22;18431;45.580;-122.680;2022-07-18T05:19:21;26.00;50.70
31867;DHT22;18431;45.580;-122.680;2022-07-18T05:21:50;26.00;50.70
31867;DHT22;18431;45.580;-122.680;2022-07-18T05:24:20;26.00;50.80
31867;DHT22;18431;45.580;-122.680;2022-07-18T05:26:50;26.00;50.70
31867;DHT22;18431;45.580;-122.680;2022-07-18T05:29:20;26.00;50.70
31867;DHT22;18431;45.580;-122.680;2022-07-18T05:31:50;26.00;50.70
31867;DHT22;18431;45.580;-122.680;2022-07-18T05:34:22;26.00;50.70
31867;DHT22;18431;45.580;-122.680;2022-07-18T05:36:51;26.00;50.70
31867;DHT22;18431;45.580;-122.680;2022-07-18T05:39:21;26.00;50.70
31867;DHT22;18431;45.580;-122.680;2022-07-18T05:41:52;26.00;50.60
31867;DHT22;18431;45.580;-122.680;2022-07-18T05:44:22;26.00;50.60
31867;DHT22;18431;45.580;-122.680;2022-07-18T05:46:52;26.00;50.60
31867;DHT22;18431;45.580;-122.680;2022-07-18T05:49:22;26.00;50.60
31867;DHT22;18431;45.580;-122.680;2022-07-18T05:51:52;26.00;50.60
31867;DHT22;18431;45.580;-122.680;2022-07-18T05:54:21;26.00;50.60
31867;DHT22;18431;45.580;-122.680;2022-07-18T05:56:52;26.00;50.50
31867;DHT22;18431;45.580;-122.680;2022-07-18T05:59:22;26.00;50.50
31867;DHT22;18431;45.580;-122.680;2022-07-18T06:01:52;26.00;50.60
31867;DHT22;18431;45.580;-122.680;2022-07-18T06:04:22;26.00;50.50
31867;DHT22;18431;45.580;-122.680;2022-07-18T06:06:51;26.00;50.50
31867;DHT22;18431;45.580;-122.680;2022-07-18T06:09:21;26.10;50.50
31867;DHT22;18431;45.580;-122.680;2022-07-18T06:11:52;26.10;50.50
31867;DHT22;18431;45.580;-122.680;2022-07-18T06:14:22;26.10;50.60
31867;DHT22;18431;45.580;-122.680;2022-07-18T06:16:52;26.10;50.50
31867;DHT22;18431;45.580;-122.680;2022-07-18T06:19:21;26.10;50.50
31867;DHT22;18431;45.580;-122.680;2022-07-18T06:21:51;26.10;50.50
31867;DHT22;18431;45.580;-122.680;2022-07-18T06:24:21;26.10;50.50
31867;DHT22;18431;45.580;-122.680;2022-07-18T06:26:51;26.10;50.60
31867;DHT22;18431;45.580;-122.680;2022-07-18T06:29:21;26.10;50.60
31867;DHT22;18431;45.580;-122.680;2022-07-18T06:31:51;26.10;50.60
31867;DHT22;18431;45.580;-122.680;2022-07-18T06:34:21;26.10;50.60
31867;DHT22;18431;45.580;-122.680;2022-07-18T06:36:51;26.10;50.50
31867;DHT22;18431;45.580;-122.680;2022-07-18T06:39:21;26.10;50.50
31867;DHT22;18431;45.580;-122.680;2022-07-18T06:41:50;26.10;50.40
31867;DHT22;18431;45.580;-122.680;2022-07-18T06:47:10;26.00;50.40
31867;DHT22;18431;45.580;-122.680;2022-07-18T06:49:40;26.00;50.40
31867;DHT22;18431;45.580;-122.680;2022-07-18T06:52:10;26.00;50.40
31867;DHT22;18431;45.580;-122.680;2022-07-18T06:54:40;26.00;50.40
31867;DHT22;18431;45.580;-122.680;2022-07-18T06:57:10;26.00;50.40
31867;DHT22;18431;45.580;-122.680;2022-07-18T06:59:40;26.00;50.40
31867;DHT22;18431;45.580;-122.680;2022-07-18T07:02:10;26.00;50.40
31867;DHT22;18431;45.580;-122.680;2022-07-18T07:04:40;26.00;50.40
31867;DHT22;18431;45.580;-122.680;2022-07-18T07:07:10;26.00;50.30
31867;DHT22;18431;45.580;-122.680;2022-07-18T07:09:39;26.00;50.30
31867;DHT22;18431;45.580;-122.680;2022-07-18T07:12:09;26.00;50.30
31867;DHT22;18431;45.580;-122.680;2022-07-18T07:14:39;26.00;50.30
31867;DHT22;18431;45.580;-122.680;2022-07-18T07:17:09;26.00;50.20
31867;DHT22;18431;45.580;-122.680;2022-07-18T07:19:39;26.00;50.20
31867;DHT22;18431;45.580;-122.680;2022-07-18T07:22:09;26.00;50.20
31867;DHT22;18431;45.580;-122.680;2022-07-18T07:24:39;26.00;50.20
31867;DHT22;18431;45.580;-122.680;2022-07-18T07:27:10;26.00;50.20
31867;DHT22;18431;45.580;-122.680;2022-07-18T07:29:39;26.00;50.20
31867;DHT22;18431;45.580;-122.680;2022-07-18T07:32:09;25.90;50.10
31867;DHT22;18431;45.580;-122.680;2022-07-18T07:34:39;26.00;50.20
31867;DHT22;18431;45.580;-122.680;2022-07-18T07:37:10;26.00;50.20
31867;DHT22;18431;45.580;-122.680;2022-07-18T07:39:40;26.00;50.20
31867;DHT22;18431;45.580;-122.680;2022-07-18T07:42:10;26.00;50.20
31867;DHT22;18431;45.580;-122.680;2022-07-18T07:44:41;25.90;50.10
31867;DHT22;18431;45.580;-122.680;2022-07-18T07:47:12;26.00;50.20
31867;DHT22;18431;45.580;-122.680;2022-07-18T07:49:42;25.90;50.10
31867;DHT22;18431;45.580;-122.680;2022-07-18T07:52:12;25.90;50.10
31867;DHT22;18431;45.580;-122.680;2022-07-18T07:54:42;25.90;50.00
31867;DHT22;18431;45.580;-122.680;2022-07-18T07:57:13;25.90;50.10
31867;DHT22;18431;45.580;-122.680;2022-07-18T07:59:43;25.90;50.00
31867;DHT22;18431;45.580;-122.680;2022-07-18T08:02:13;25.90;50.00
31867;DHT22;18431;45.580;-122.680;2022-07-18T08:04:44;25.90;50.00
31867;DHT22;18431;45.580;-122.680;2022-07-18T08:07:14;25.90;50.10
31867;DHT22;18431;45.580;-122.680;2022-07-18T08:09:44;25.90;50.00
31867;DHT22;18431;45.580;-122.680;2022-07-18T08:12:14;25.90;49.90
31867;DHT22;18431;45.580;-122.680;2022-07-18T08:14:44;25.90;49.90
31867;DHT22;18431;45.580;-122.680;2022-07-18T08:17:14;25.90;49.90
31867;DHT22;18431;45.580;-122.680;2022-07-18T08:19:43;25.90;49.90
31867;DHT22;18431;45.580;-122.680;2022-07-18T08:22:13;25.90;49.90
31867;DHT22;18431;45.580;-122.680;2022-07-18T08:24:43;25.90;49.80
31867;DHT22;18431;45.580;-122.680;2022-07-18T08:27:13;25.90;49.80
31867;DHT22;18431;45.580;-122.680;2022-07-18T08:29:43;25.90;49.80
31867;DHT22;18431;45.580;-122.680;2022-07-18T08:32:13;25.90;49.80
31867;DHT22;18431;45.580;-122.680;2022-07-18T08:34:43;25.90;49.80
31867;DHT22;18431;45.580;-122.680;2022-07-18T08:37:12;25.90;49.80
31867;DHT22;18431;45.580;-122.680;2022-07-18T08:39:42;25.90;49.80
31867;DHT22;18431;45.580;-122.680;2022-07-18T08:42:13;25.90;49.80
31867;DHT22;18431;45.580;-122.680;2022-07-18T08:44:43;25.90;49.80
31867;DHT22;18431;45.580;-122.680;2022-07-18T08:47:14;25.80;49.70
31867;DHT22;18431;45.580;-122.680;2022-07-18T08:49:45;25.90;49.80
31867;DHT22;18431;45.580;-122.680;2022-07-18T08:52:16;25.90;49.80
31867;DHT22;18431;45.580;-122.680;2022-07-18T08:54:45;25.80;49.70
31867;DHT22;18431;45.580;-122.680;2022-07-18T08:57:17;25.80;49.70
31867;DHT22;18431;45.580;-122.680;2022-07-18T08:59:47;25.90;49.80
31867;DHT22;18431;45.580;-122.680;2022-07-18T09:02:17;25.80;49.70
31867;DHT22;18431;45.580;-122.680;2022-07-18T09:04:48;25.80;49.70
31867;DHT22;18431;45.580;-122.680;2022-07-18T09:07:30;25.80;49.70
31867;DHT22;18431;45.580;-122.680;2022-07-18T09:10:01;25.80;49.70
31867;DHT22;18431;45.580;-122.680;2022-07-18T09:12:32;25.80;49.70
31867;DHT22;18431;45.580;-122.680;2022-07-18T09:15:07;25.80;49.70
31867;DHT22;18431;45.580;-122.680;2022-07-18T09:17:39;25.80;49.70
31867;DHT22;18431;45.580;-122.680;2022-07-18T09:20:10;25.80;49.70
31867;DHT22;18431;45.580;-122.680;2022-07-18T09:22:44;25.80;49.70
31867;DHT22;18431;45.580;-122.680;2022-07-18T09:25:17;25.80;49.70
31867;DHT22;18431;45.580;-122.680;2022-07-18T09:27:50;25.80;49.70
31867;DHT22;18431;45.580;-122.680;2022-07-18T09:30:31;25.80;49.70
31867;DHT22;18431;45.580;-122.680;2022-07-18T09:33:07;25.80;49.60
31867;DHT22;18431;45.580;-122.680;2022-07-18T09:38:20;25.70;49.60
31867;DHT22;18431;45.580;-122.680;2022-07-18T09:40:52;25.70;49.60
31867;DHT22;18431;45.580;-122.680;2022-07-18T09:43:24;25.70;49.60
31867;DHT22;18431;45.580;-122.680;2022-07-18T09:45:56;25.70;49.60
31867;DHT22;18431;45.580;-122.680;2022-07-18T09:48:27;25.70;49.60
31867;DHT22;18431;45.580;-122.680;2022-07-18T09:51:09;25.70;49.60
31867;DHT22;18431;45.580;-122.680;2022-07-18T09:53:44;25.70;49.60
31867;DHT22;18431;45.580;-122.680;2022-07-18T09:56:34;25.70;49.60
31867;DHT22;18431;45.580;-122.680;2022-07-18T09:58:54;25.70;49.60
31867;DHT22;18431;45.580;-122.680;2022-07-18T10:01:24;25.70;49.60
31867;DHT22;18431;45.580;-122.680;2022-07-18T10:03:54;25.70;49.50
31867;DHT22;18431;45.580;-122.680;2022-07-18T10:06:25;25.70;49.60
31867;DHT22;18431;45.580;-122.680;2022-07-18T10:08:55;25.70;49.50
31867;DHT22;18431;45.580;-122.680;2022-07-18T10:11:25;25.70;49.50
31867;DHT22;18431;45.580;-122.680;2022-07-18T10:13:55;25.70;49.50
31867;DHT22;18431;45.580;-122.680;2022-07-18T10:16:25;25.70;49.50
31867;DHT22;18431;45.580;-122.680;2022-07-18T10:18:55;25.70;49.50
31867;DHT22;18431;45.580;-122.680;2022-07-18T10:21:25;25.70;49.50
31867;DHT22;18431;45.580;-122.680;2022-07-18T10:23:57;25.70;49.50
31867;DHT22;18431;45.580;-122.680;2022-07-18T10:26:30;25.70;49.50
31867;DHT22;18431;45.580;-122.680;2022-07-18T10:31:37;25.70;49.40
31867;DHT22;18431;45.580;-122.680;2022-07-18T10:39:42;25.60;49.40
31867;DHT22;18431;45.580;-122.680;2022-07-18T10:42:14;25.60;49.40
31867;DHT22;18431;45.580;-122.680;2022-07-18T10:44:45;25.60;49.50
31867;DHT22;18431;45.580;-122.680;2022-07-18T10:47:19;25.60;49.50
31867;DHT22;18431;45.580;-122.680;2022-07-18T10:57:41;25.60;49.40
31867;DHT22;18431;45.580;-122.680;2022-07-18T11:00:16;25.50;49.40
31867;DHT22;18431;45.580;-122.680;2022-07-18T11:05:34;25.50;49.40
31867;DHT22;18431;45.580;-122.680;2022-07-18T11:13:35;25.50;49.40
31867;DHT22;18431;45.580;-122.680;2022-07-18T11:16:13;25.50;49.40
31867;DHT22;18431;45.580;-122.680;2022-07-18T11:21:19;25.50;49.40
31867;DHT22;18431;45.580;-122.680;2022-07-18T11:24:02;25.50;49.40
31867;DHT22;18431;45.580;-122.680;2022-07-18T11:26:23;25.50;49.40
31867;DHT22;18431;45.580;-122.680;2022-07-18T11:29:01;25.50;49.30
31867;DHT22;18431;45.580;-122.680;2022-07-18T11:31:31;25.50;49.30
31867;DHT22;18431;45.580;-122.680;2022-07-18T11:34:02;25.50;49.30
31867;DHT22;18431;45.580;-122.680;2022-07-18T11:36:33;25.50;49.30
31867;DHT22;18431;45.580;-122.680;2022-07-18T11:39:04;25.50;49.30
31867;DHT22;18431;45.580;-122.680;2022-07-18T11:41:38;25.50;49.30
31867;DHT22;18431;45.580;-122.680;2022-07-18T11:44:20;25.50;50.00
31867;DHT22;18431;45.580;-122.680;2022-07-18T11:47:07;25.50;49.30
31867;DHT22;18431;45.580;-122.680;2022-07-18T11:49:41;25.50;49.40
31867;DHT22;18431;45.580;-122.680;2022-07-18T11:52:10;25.50;49.40
31867;DHT22;18431;45.580;-122.680;2022-07-18T11:54:40;25.50;49.40
31867;DHT22;18431;45.580;-122.680;2022-07-18T11:57:10;25.50;49.30
31867;DHT22;18431;45.580;-122.680;2022-07-18T11:59:42;25.50;49.40
31867;DHT22;18431;45.580;-122.680;2022-07-18T12:02:13;25.50;49.30
31867;DHT22;18431;45.580;-122.680;2022-07-18T12:04:42;25.50;49.30
31867;DHT22;18431;45.580;-122.680;2022-07-18T12:07:23;25.50;49.30
31867;DHT22;18431;45.580;-122.680;2022-07-18T12:09:53;25.50;49.30
31867;DHT22;18431;45.580;-122.680;2022-07-18T12:12:24;25.40;49.20
31867;DHT22;18431;45.580;-122.680;2022-07-18T12:14:55;25.40;49.20
31867;DHT22;18431;45.580;-122.680;2022-07-18T12:17:26;25.40;49.20
31867;DHT22;18431;45.580;-122.680;2022-07-18T12:20:19;25.40;49.20
31867;DHT22;18431;45.580;-122.680;2022-07-18T12:23:07;25.40;49.20
31867;DHT22;18431;45.580;-122.680;2022-07-18T12:25:38;25.40;49.20
31867;DHT22;18431;45.580;-122.680;2022-07-18T12:28:18;25.40;49.20
31867;DHT22;18431;45.580;-122.680;2022-07-18T12:30:50;25.40;49.20
31867;DHT22;18431;45.580;-122.680;2022-07-18T12:33:20;25.40;49.30
31867;DHT22;18431;45.580;-122.680;2022-07-18T12:35:59;25.30;49.20
31867;DHT22;18431;45.580;-122.680;2022-07-18T12:38:30;25.30;49.20
31867;DHT22;18431;45.580;-122.680;2022-07-18T12:41:00;25.30;49.20
31867;DHT22;18431;45.580;-122.680;2022-07-18T12:43:33;25.40;49.90
31867;DHT22;18431;45.580;-122.680;2022-07-18T12:46:09;25.30;49.20
31867;DHT22;18431;45.580;-122.680;2022-07-18T12:48:39;25.30;49.20
31867;DHT22;18431;45.580;-122.680;2022-07-18T12:51:10;25.40;49.30
31867;DHT22;18431;45.580;-122.680;2022-07-18T12:53:41;25.30;49.20
31867;DHT22;18431;45.580;-122.680;2022-07-18T12:56:11;25.30;49.20
31867;DHT22;18431;45.580;-122.680;2022-07-18T12:58:41;25.30;49.20
31867;DHT22;18431;45.580;-122.680;2022-07-18T13:01:12;25.30;49.20
31867;DHT22;18431;45.580;-122.680;2022-07-18T13:03:42;25.30;49.20
31867;DHT22;18431;45.580;-122.680;2022-07-18T13:06:12;25.30;49.20
31867;DHT22;18431;45.580;-122.680;2022-07-18T13:08:42;25.30;49.20
31867;DHT22;18431;45.580;-122.680;2022-07-18T13:11:13;25.30;49.20
31867;DHT22;18431;45.580;-122.680;2022-07-18T13:13:43;25.30;49.20
31867;DHT22;18431;45.580;-122.680;2022-07-18T13:16:12;25.30;49.10
31867;DHT22;18431;45.580;-122.680;2022-07-18T13:18:44;25.30;49.80
31867;DHT22;18431;45.580;-122.680;2022-07-18T13:21:13;25.30;49.10
31867;DHT22;18431;45.580;-122.680;2022-07-18T13:23:46;25.30;49.10
31867;DHT22;18431;45.580;-122.680;2022-07-18T13:26:34;25.30;49.10
31867;DHT22;18431;45.580;-122.680;2022-07-18T13:29:04;25.30;49.20
31867;DHT22;18431;45.580;-122.680;2022-07-18T13:31:35;25.30;49.20
31867;DHT22;18431;45.580;-122.680;2022-07-18T13:34:08;25.30;49.20
31867;DHT22;18431;45.580;-122.680;2022-07-18T13:36:38;25.30;49.20
31867;DHT22;18431;45.580;-122.680;2022-07-18T13:39:08;25.30;49.20
31867;DHT22;18431;45.580;-122.680;2022-07-18T13:41:38;25.30;49.30
31867;DHT22;18431;45.580;-122.680;2022-07-18T13:44:09;25.30;49.30
31867;DHT22;18431;45.580;-122.680;2022-07-18T13:46:38;25.30;49.30
31867;DHT22;18431;45.580;-122.680;2022-07-18T13:49:09;25.30;49.30
31867;DHT22;18431;45.580;-122.680;2022-07-18T13:51:39;25.30;49.30
31867;DHT22;18431;45.580;-122.680;2022-07-18T13:54:09;25.20;49.20
31867;DHT22;18431;45.580;-122.680;2022-07-18T13:56:39;25.30;49.30
31867;DHT22;18431;45.580;-122.680;2022-07-18T13:59:10;25.30;49.30
31867;DHT22;18431;45.580;-122.680;2022-07-18T14:01:40;25.20;49.20
31867;DHT22;18431;45.580;-122.680;2022-07-18T14:04:11;25.20;49.20
31867;DHT22;18431;45.580;-122.680;2022-07-18T14:06:40;25.20;49.30
31867;DHT22;18431;45.580;-122.680;2022-07-18T14:09:12;25.20;49.30
31867;DHT22;18431;45.580;-122.680;2022-07-18T14:11:42;25.20;49.30
31867;DHT22;18431;45.580;-122.680;2022-07-18T14:14:12;25.20;49.40
31867;DHT22;18431;45.580;-122.680;2022-07-18T14:16:43;25.20;49.40
31867;DHT22;18431;45.580;-122.680;2022-07-18T14:19:14;25.20;49.40
31867;DHT22;18431;45.580;-122.680;2022-07-18T14:21:44;25.20;49.40
31867;DHT22;18431;45.580;-122.680;2022-07-18T14:24:14;25.10;49.30
31867;DHT22;18431;45.580;-122.680;2022-07-18T14:26:46;25.10;49.40
31867;DHT22;18431;45.580;-122.680;2022-07-18T14:29:16;25.10;49.40
31867;DHT22;18431;45.580;-122.680;2022-07-18T14:31:46;25.10;49.40
31867;DHT22;18431;45.580;-122.680;2022-07-18T14:34:17;25.10;49.50
31867;DHT22;18431;45.580;-122.680;2022-07-18T14:36:47;25.10;49.50
31867;DHT22;18431;45.580;-122.680;2022-07-18T14:39:16;25.10;49.50
31867;DHT22;18431;45.580;-122.680;2022-07-18T14:41:46;25.10;49.50
31867;DHT22;18431;45.580;-122.680;2022-07-18T14:44:16;25.10;49.60
31867;DHT22;18431;45.580;-122.680;2022-07-18T14:46:46;25.10;49.60
31867;DHT22;18431;45.580;-122.680;2022-07-18T14:49:16;25.10;49.60
31867;DHT22;18431;45.580;-122.680;2022-07-18T14:51:46;25.10;49.60
31867;DHT22;18431;45.580;-122.680;2022-07-18T14:54:16;25.10;49.60
31867;DHT22;18431;45.580;-122.680;2022-07-18T14:56:45;25.10;49.60
31867;DHT22;18431;45.580;-122.680;2022-07-18T14:59:15;25.10;49.60
31867;DHT22;18431;45.580;-122.680;2022-07-18T15:01:45;25.10;49.60
31867;DHT22;18431;45.580;-122.680;2022-07-18T15:04:16;25.10;49.60
31867;DHT22;18431;45.580;-122.680;2022-07-18T15:06:45;25.10;49.60
31867;DHT22;18431;45.580;-122.680;2022-07-18T15:09:15;25.10;49.60
31867;DHT22;18431;45.580;-122.680;2022-07-18T15:11:45;25.10;49.60
31867;DHT22;18431;45.580;-122.680;2022-07-18T15:14:15;25.10;49.50
31867;DHT22;18431;45.580;-122.680;2022-07-18T15:16:45;25.10;49.60
31867;DHT22;18431;45.580;-122.680;2022-07-18T15:19:15;25.10;49.60
31867;DHT22;18431;45.580;-122.680;2022-07-18T15:21:46;25.10;49.60
31867;DHT22;18431;45.580;-122.680;2022-07-18T15:24:16;25.10;49.60
31867;DHT22;18431;45.580;-122.680;2022-07-18T15:26:47;25.00;49.60
31867;DHT22;18431;45.580;-122.680;2022-07-18T15:29:18;25.00;49.60
31867;DHT22;18431;45.580;-122.680;2022-07-18T15:31:48;25.10;49.70
31867;DHT22;18431;45.580;-122.680;2022-07-18T15:34:18;25.10;49.70
31867;DHT22;18431;45.580;-122.680;2022-07-18T15:36:48;25.10;49.70
31867;DHT22;18431;45.580;-122.680;2022-07-18T15:39:18;25.10;49.70
31867;DHT22;18431;45.580;-122.680;2022-07-18T15:41:48;25.00;49.70